sensor_id;sensor_type;location;lat;lon;timestamp;P1;P2;P0
74426;PMS7003;62859;53.906;27.430;2023-02-25T00:01:43;8.8;8.5;6.3
74426;PMS7003;62859;53.906;27.430;2023-02-25T00:06:35;8.7;8;6.3
74426;PMS7003;62859;53.906;27.430;2023-02-25T00:12:01;12.3;10;7
74426;PMS7003;62859;53.906;27.430;2023-02-25T00:16:21;16.3;11.8;8
74426;PMS7003;62859;53.906;27.430;2023-02-25T00:21:35;14.7;13;8.3
74426;PMS7003;62859;53.906;27.430;2023-02-25T00:26:53;16.7;14.7;9.7
74426;PMS7003;62859;53.906;27.430;2023-02-25T00:31:17;18;14.7;9.7
74426;PMS7003;62859;53.906;27.430;2023-02-25T00:37:01;15.5;12;7.8
74426;PMS7003;62859;53.906;27.430;2023-02-25T00:41:13;15;13;8.7
74426;PMS7003;62859;53.906;27.430;2023-02-25T00:46:13;17.7;15;8.7
74426;PMS7003;62859;53.906;27.430;2023-02-25T00:51:45;14.7;12.3;8.3
74426;PMS7003;62859;53.906;27.430;2023-02-25T00:56:37;20.5;17;9
74426;PMS7003;62859;53.906;27.430;2023-02-25T01:01:57;17.7;15;9.3
74426;PMS7003;62859;53.906;27.430;2023-02-25T01:06:21;15;12.7;8
74426;PMS7003;62859;53.906;27.430;2023-02-25T01:11:27;14.7;13.3;8.3
74426;PMS7003;62859;53.906;27.430;2023-02-25T01:16:37;14;13;8.5
74426;PMS7003;62859;53.906;27.430;2023-02-25T01:21:33;17.3;15;8.3
74426;PMS7003;62859;53.906;27.430;2023-02-25T01:26:59;15;12;7.7
74426;PMS7003;62859;53.906;27.430;2023-02-25T01:31:23;17;14.3;8.3
74426;PMS7003;62859;53.906;27.430;2023-02-25T01:36:27;16.5;14.3;8.5
74426;PMS7003;62859;53.906;27.430;2023-02-25T01:41:33;18.3;14.7;10.3
74426;PMS7003;62859;53.906;27.430;2023-02-25T01:46:23;17.3;15.7;9.3
74426;PMS7003;62859;53.906;27.430;2023-02-25T01:52:02;19.3;16.7;10
74426;PMS7003;62859;53.906;27.430;2023-02-25T01:56:51;16.3;14.8;9.8
74426;PMS7003;62859;53.906;27.430;2023-02-25T02:01:28;20.7;16.7;11.3
74426;PMS7003;62859;53.906;27.430;2023-02-25T02:06:43;22.7;18.7;12
74426;PMS7003;62859;53.906;27.430;2023-02-25T02:11:21;21;19;12
74426;PMS7003;62859;53.906;27.430;2023-02-25T02:17:04;23;20.7;12.7
74426;PMS7003;62859;53.906;27.430;2023-02-25T02:21:18;22.3;18.3;11
74426;PMS7003;62859;53.906;27.430;2023-02-25T02:26:36;20.7;18.7;10
74426;PMS7003;62859;53.906;27.430;2023-02-25T02:31:46;25.8;22.5;12.8
74426;PMS7003;62859;53.906;27.430;2023-02-25T02:36:22;20.3;18.7;11.7
74426;PMS7003;62859;53.906;27.430;2023-02-25T02:41:48;25;20.3;12.7
74426;PMS7003;62859;53.906;27.430;2023-02-25T02:46:22;23.7;21.3;13
74426;PMS7003;62859;53.906;27.430;2023-02-25T02:51:28;21.8;19.3;13.5
74426;PMS7003;62859;53.906;27.430;2023-02-25T02:56:33;25.7;20.7;12.7
74426;PMS7003;62859;53.906;27.430;2023-02-25T03:01:22;21.7;20.7;13.7
74426;PMS7003;62859;53.906;27.430;2023-02-25T03:06:58;26.7;20.3;12.7
74426;PMS7003;62859;53.906;27.430;2023-02-25T03:11:13;22;18.8;12.3
74426;PMS7003;62859;53.906;27.430;2023-02-25T03:16:13;26.7;21;14.3
74426;PMS7003;62859;53.906;27.430;2023-02-25T03:21:41;24;20.7;13.3
74426;PMS7003;62859;53.906;27.430;2023-02-25T03:26:22;23;19.3;10.7
74426;PMS7003;62859;53.906;27.430;2023-02-25T03:31:58;25.3;23.3;12.5
74426;PMS7003;62859;53.906;27.430;2023-02-25T03:36:40;21.3;15.7;11
74426;PMS7003;62859;53.906;27.430;2023-02-25T03:41:28;24.7;18;10.3
74426;PMS7003;62859;53.906;27.430;2023-02-25T03:46:45;19.3;15.3;10.3
74426;PMS7003;62859;53.906;27.430;2023-02-25T03:51:49;18;16;9.8
74426;PMS7003;62859;53.906;27.430;2023-02-25T03:56:50;19.7;14;9
74426;PMS7003;62859;53.906;27.430;2023-02-25T04:01:14;18.7;16.7;9.3
74426;PMS7003;62859;53.906;27.430;2023-02-25T04:06:37;14.3;12.5;8.5
74426;PMS7003;62859;53.906;27.430;2023-02-25T04:11:43;14.3;13;8.3
74426;PMS7003;62859;53.906;27.430;2023-02-25T04:16:13;14.3;13;8
74426;PMS7003;62859;53.906;27.430;2023-02-25T04:22:01;14.7;13.7;9
74426;PMS7003;62859;53.906;27.430;2023-02-25T04:26:21;15.3;12.5;9
74426;PMS7003;62859;53.906;27.430;2023-02-25T04:31:37;15.3;14;9.7
74426;PMS7003;62859;53.906;27.430;2023-02-25T04:36:45;18.7;14.3;9
74426;PMS7003;62859;53.906;27.430;2023-02-25T04:41:51;14.3;13;8
74426;PMS7003;62859;53.906;27.430;2023-02-25T04:47:01;13.8;12.8;8.8
74426;PMS7003;62859;53.906;27.430;2023-02-25T04:51:13;18;16.3;9
74426;PMS7003;62859;53.906;27.430;2023-02-25T04:56:37;16;13.7;8
74426;PMS7003;62859;53.906;27.430;2023-02-25T05:01:35;17.3;12;8.3
74426;PMS7003;62859;53.906;27.430;2023-02-25T05:06:13;15.3;12.8;8.3
74426;PMS7003;62859;53.906;27.430;2023-02-25T05:11:45;16.3;15;9.3
74426;PMS7003;62859;53.906;27.430;2023-02-25T05:16:13;16;13.7;8.7
74426;PMS7003;62859;53.906;27.430;2023-02-25T05:21:14;20.3;15.7;11
74426;PMS7003;62859;53.906;27.430;2023-02-25T05:27:01;16.8;13.8;8.3
74426;PMS7003;62859;53.906;27.430;2023-02-25T05:31:51;17.3;14;9.7
74426;PMS7003;62859;53.906;27.430;2023-02-25T05:36:31;21;14.7;11.3
74426;PMS7003;62859;53.906;27.430;2023-02-25T05:41:13;19.3;16;11
74426;PMS7003;62859;53.906;27.430;2023-02-25T05:46:35;23.3;20.5;13.3
74426;PMS7003;62859;53.906;27.430;2023-02-25T05:52:01;20.3;17.7;11.7
74426;PMS7003;62859;53.906;27.430;2023-02-25T05:56:35;25.7;24;13.7
74426;PMS7003;62859;53.906;27.430;2023-02-25T06:01:31;28.5;24.3;15.3
74426;PMS7003;62859;53.906;27.430;2023-02-25T06:06:23;19.7;17.7;10.3
74426;PMS7003;62859;53.906;27.430;2023-02-25T06:11:37;16.3;15.7;10.7
74426;PMS7003;62859;53.906;27.430;2023-02-25T06:17:01;17;14.3;9
74426;PMS7003;62859;53.906;27.430;2023-02-25T06:21:35;19;16;11.5
74426;PMS7003;62859;53.906;27.430;2023-02-25T06:26:45;12;11.7;7.7
74426;PMS7003;62859;53.906;27.430;2023-02-25T06:31:14;10.7;8.7;6.3
74426;PMS7003;62859;53.906;27.430;2023-02-25T06:36:13;11.3;9.3;7.7
74426;PMS7003;62859;53.906;27.430;2023-02-25T06:41:59;10.8;10.3;6.3
74426;PMS7003;62859;53.906;27.430;2023-02-25T06:46:13;11;8.3;5.3
74426;PMS7003;62859;53.906;27.430;2023-02-25T06:51:33;11;9.7;7.3
74426;PMS7003;62859;53.906;27.430;2023-02-25T06:56:13;10.7;10;7
74426;PMS7003;62859;53.906;27.430;2023-02-25T07:01:37;12.8;9.8;6.8
74426;PMS7003;62859;53.906;27.430;2023-02-25T07:07:01;10;8;6.7
74426;PMS7003;62859;53.906;27.430;2023-02-25T07:11:51;9.7;7.7;6
74426;PMS7003;62859;53.906;27.430;2023-02-25T07:16:49;12;11;6.7
74426;PMS7003;62859;53.906;27.430;2023-02-25T07:21:13;10.8;9.5;6
74426;PMS7003;62859;53.906;27.430;2023-02-25T07:26:39;7.3;6.3;5.7
74426;PMS7003;62859;53.906;27.430;2023-02-25T07:31:45;10;6.3;5
74426;PMS7003;62859;53.906;27.430;2023-02-25T07:36:39;14.3;11.3;7
74426;PMS7003;62859;53.906;27.430;2023-02-25T07:41:47;14.5;12.8;8
74426;PMS7003;62859;53.906;27.430;2023-02-25T07:46:13;16;14;8.3
74426;PMS7003;62859;53.906;27.430;2023-02-25T07:51:39;13;10.7;6.7
74426;PMS7003;62859;53.906;27.430;2023-02-25T07:56:57;16.5;14.8;9.5
74426;PMS7003;62859;53.906;27.430;2023-02-25T08:01:25;18.3;17;10
74426;PMS7003;62859;53.906;27.430;2023-02-25T08:06:45;16;14;10.3
74426;PMS7003;62859;53.906;27.430;2023-02-25T08:11:13;14.7;13;8.7
74426;PMS7003;62859;53.906;27.430;2023-02-25T08:16:39;15;12.3;9.3
74426;PMS7003;62859;53.906;27.430;2023-02-25T08:22:01;16.3;14.7;10
74426;PMS7003;62859;53.906;27.430;2023-02-25T08:26:13;16.3;14;10
74426;PMS7003;62859;53.906;27.430;2023-02-25T08:31:49;21.3;18.7;11.7
74426;PMS7003;62859;53.906;27.430;2023-02-25T08:36:14;14.3;12.5;9
74426;PMS7003;62859;53.906;27.430;2023-02-25T08:41:53;12.7;10.3;7.3
74426;PMS7003;62859;53.906;27.430;2023-02-25T08:47:03;13.7;10.7;7
74426;PMS7003;62859;53.906;27.430;2023-02-25T08:51:39;10.3;7.7;6.7
74426;PMS7003;62859;53.906;27.430;2023-02-25T08:56:49;10.3;9.8;6.3
74426;PMS7003;62859;53.906;27.430;2023-02-25T09:01:25;9.3;6.7;4.3
74426;PMS7003;62859;53.906;27.430;2023-02-25T09:06:47;8;6;3.3
74426;PMS7003;62859;53.906;27.430;2023-02-25T09:12:03;7.3;6.7;3.7
74426;PMS7003;62859;53.906;27.430;2023-02-25T09:16:27;11.3;8;5.5
74426;PMS7003;62859;53.906;27.430;2023-02-25T09:21:49;10.3;7.7;6
74426;PMS7003;62859;53.906;27.430;2023-02-25T09:26:13;11;9.3;7
74426;PMS7003;62859;53.906;27.430;2023-02-25T09:31:47;11.7;8.3;6
74426;PMS7003;62859;53.906;27.430;2023-02-25T09:37:03;7;6.5;5.3
74426;PMS7003;62859;53.906;27.430;2023-02-25T09:41:39;8.3;7;5
74426;PMS7003;62859;53.906;27.430;2023-02-25T09:46:50;9;6;4.7
74426;PMS7003;62859;53.906;27.430;2023-02-25T09:51:17;7.5;7.5;4.8
74426;PMS7003;62859;53.906;27.430;2023-02-25T09:56:49;7.7;6.3;3.3
74426;PMS7003;62859;53.906;27.430;2023-02-25T10:02:04;6;5.7;4
74426;PMS7003;62859;53.906;27.430;2023-02-25T10:06:15;6;5;3
74426;PMS7003;62859;53.906;27.430;2023-02-25T10:11:49;5.8;4.3;3
74426;PMS7003;62859;53.906;27.430;2023-02-25T10:16:18;7.3;6.3;4
74426;PMS7003;62859;53.906;27.430;2023-02-25T10:21:18;7.3;6.7;5.3
74426;PMS7003;62859;53.906;27.430;2023-02-25T10:27:03;8;7;4.3
74426;PMS7003;62859;53.906;27.430;2023-02-25T10:31:14;7.3;6.5;4.8
74426;PMS7003;62859;53.906;27.430;2023-02-25T10:36:51;5.7;5.7;4.3
74426;PMS7003;62859;53.906;27.430;2023-02-25T10:41:25;6.3;6.3;4.3
74426;PMS7003;62859;53.906;27.430;2023-02-25T10:46:49;8;6.7;4
74426;PMS7003;62859;53.906;27.430;2023-02-25T10:52:04;7;6.3;3.3
74426;PMS7003;62859;53.906;27.430;2023-02-25T10:56:40;6.7;6.7;4.3
74426;PMS7003;62859;53.906;27.430;2023-02-25T11:01:49;8;5.3;3.7
74426;PMS7003;62859;53.906;27.430;2023-02-25T11:06:47;8.3;6.7;5
74426;PMS7003;62859;53.906;27.430;2023-02-25T11:11:51;8.3;7.5;6
74426;PMS7003;62859;53.906;27.430;2023-02-25T11:17:01;10.7;10.3;7.3
74426;PMS7003;62859;53.906;27.430;2023-02-25T11:21:39;12;10;7.7
74426;PMS7003;62859;53.906;27.430;2023-02-25T11:26:50;12.3;10.7;7.3
74426;PMS7003;62859;53.906;27.430;2023-02-25T11:31:27;13.8;12;8.5
74426;PMS7003;62859;53.906;27.430;2023-02-25T11:36:49;17;14.3;9.7
74426;PMS7003;62859;53.906;27.430;2023-02-25T11:42:04;18.7;16.3;10.3
74426;PMS7003;62859;53.906;27.430;2023-02-25T11:46:39;17;14.5;10
74426;PMS7003;62859;53.906;27.430;2023-02-25T11:51:50;14.3;13;8.7
74426;PMS7003;62859;53.906;27.430;2023-02-25T11:56:37;11;8.7;6.7
74426;PMS7003;62859;53.906;27.430;2023-02-25T12:01:53;9.7;9.3;7
74426;PMS7003;62859;53.906;27.430;2023-02-25T12:07:08;11.8;9.8;6.8
74426;PMS7003;62859;53.906;27.430;2023-02-25T12:12:35;11.3;9.7;6.7
74426;PMS7003;62859;53.906;27.430;2023-02-25T12:16:54;9.3;7.7;6.3
74426;PMS7003;62859;53.906;27.430;2023-02-25T12:21:28;30.3;25.3;17
74426;PMS7003;62859;53.906;27.430;2023-02-25T12:26:54;9;8.8;7.3
74426;PMS7003;62859;53.906;27.430;2023-02-25T12:32:03;8.7;8.3;6
74426;PMS7003;62859;53.906;27.430;2023-02-25T12:36:43;9.3;6;3.7
74426;PMS7003;62859;53.906;27.430;2023-02-25T12:41:47;8;6.3;5.3
74426;PMS7003;62859;53.906;27.430;2023-02-25T12:46:29;7.8;7;5.3
74426;PMS7003;62859;53.906;27.430;2023-02-25T12:52:05;8;8;6
74426;PMS7003;62859;53.906;27.430;2023-02-25T12:57:02;9.3;7.3;5.3
74426;PMS7003;62859;53.906;27.430;2023-02-25T13:01:31;9;7.3;5.3
74426;PMS7003;62859;53.906;27.430;2023-02-25T13:11:15;10;8.7;6
74426;PMS7003;62859;53.906;27.430;2023-02-25T13:16:51;12.7;10.7;8
74426;PMS7003;62859;53.906;27.430;2023-02-25T13:22:08;10.7;8;7
74426;PMS7003;62859;53.906;27.430;2023-02-25T13:26:19;9.8;8;6.5
74426;PMS7003;62859;53.906;27.430;2023-02-25T13:32:02;9;6.7;4.3
74426;PMS7003;62859;53.906;27.430;2023-02-25T13:36:20;7.3;7.3;5.3
74426;PMS7003;62859;53.906;27.430;2023-02-25T13:41:51;9.5;7.5;5.8
74426;PMS7003;62859;53.906;27.430;2023-02-25T13:47:03;7.3;7;5.3
74426;PMS7003;62859;53.906;27.430;2023-02-25T13:51:22;8.3;8;5.7
74426;PMS7003;62859;53.906;27.430;2023-02-25T13:57:03;9.7;8;5
74426;PMS7003;62859;53.906;27.430;2023-02-25T14:01:31;9.8;7.3;5.8
74426;PMS7003;62859;53.906;27.430;2023-02-25T14:06:54;6.7;6.7;5.3
74426;PMS7003;62859;53.906;27.430;2023-02-25T14:12:03;10;8;4.7
74426;PMS7003;62859;53.906;27.430;2023-02-25T14:16:41;12.3;7.7;5.3
74426;PMS7003;62859;53.906;27.430;2023-02-25T14:22:09;8.8;8.8;6.3
74426;PMS7003;62859;53.906;27.430;2023-02-25T14:26:27;8.7;8.3;6.3
74426;PMS7003;62859;53.906;27.430;2023-02-25T14:31:40;5.7;4.7;2.7
74426;PMS7003;62859;53.906;27.430;2023-02-25T14:36:52;7.7;6.7;4.7
74426;PMS7003;62859;53.906;27.430;2023-02-25T14:41:40;7.5;4.8;3.8
74426;PMS7003;62859;53.906;27.430;2023-02-25T14:47:04;6.3;5.3;3.7
74426;PMS7003;62859;53.906;27.430;2023-02-25T14:51:44;5;3.7;2
74426;PMS7003;62859;53.906;27.430;2023-02-25T14:57:02;5.7;4.7;2.3
74426;PMS7003;62859;53.906;27.430;2023-02-25T15:02:06;6.3;5.3;4
74426;PMS7003;62859;53.906;27.430;2023-02-25T15:06:30;5.3;4;3.3
74426;PMS7003;62859;53.906;27.430;2023-02-25T15:12:21;5.7;5;4.3
74426;PMS7003;62859;53.906;27.430;2023-02-25T15:16:58;6.3;5.7;3.3
74426;PMS7003;62859;53.906;27.430;2023-02-25T15:21:49;5;5;3
74426;PMS7003;62859;53.906;27.430;2023-02-25T15:27:30;5;3.3;2.3
74426;PMS7003;62859;53.906;27.430;2023-02-25T15:31:24;4.7;4.7;3
74426;PMS7003;62859;53.906;27.430;2023-02-25T15:37:16;5.5;5.5;3.5
74426;PMS7003;62859;53.906;27.430;2023-02-25T15:41:40;6;4.3;2.7
74426;PMS7003;62859;53.906;27.430;2023-02-25T15:46:45;5.7;5.7;3
74426;PMS7003;62859;53.906;27.430;2023-02-25T15:52:03;7.3;6.3;3.7
74426;PMS7003;62859;53.906;27.430;2023-02-25T15:56:28;6;5.8;4.3
74426;PMS7003;62859;53.906;27.430;2023-02-25T16:02:01;6.7;5.3;3.7
74426;PMS7003;62859;53.906;27.430;2023-02-25T16:06:27;4.7;4.7;3
74426;PMS7003;62859;53.906;27.430;2023-02-25T16:11:49;4;4;2.7
74426;PMS7003;62859;53.906;27.430;2023-02-25T16:17:04;5;4.5;3
74426;PMS7003;62859;53.906;27.430;2023-02-25T16:21:14;4.7;4.7;2.7
74426;PMS7003;62859;53.906;27.430;2023-02-25T16:27:03;5.7;5;3.7
74426;PMS7003;62859;53.906;27.430;2023-02-25T16:31:25;6.7;4.3;2.7
74426;PMS7003;62859;53.906;27.430;2023-02-25T16:36:29;5.5;4.8;3.3
74426;PMS7003;62859;53.906;27.430;2023-02-25T16:42:00;7.7;4.7;3
74426;PMS7003;62859;53.906;27.430;2023-02-25T16:46:41;5.3;4.3;3
74426;PMS7003;62859;53.906;27.430;2023-02-25T16:52:03;6;5.7;4.3
74426;PMS7003;62859;53.906;27.430;2023-02-25T16:56:27;6.3;6;4.3
74426;PMS7003;62859;53.906;27.430;2023-02-25T17:01:36;8.7;7;5
74426;PMS7003;62859;53.906;27.430;2023-02-25T17:07:05;6;5.3;4
74426;PMS7003;62859;53.906;27.430;2023-02-25T17:11:27;8;8;5.3
74426;PMS7003;62859;53.906;27.430;2023-02-25T17:16:40;9;7.8;5.3
74426;PMS7003;62859;53.906;27.430;2023-02-25T17:21:15;6.7;6;5.3
74426;PMS7003;62859;53.906;27.430;2023-02-25T17:26:47;5.7;4.3;3
74426;PMS7003;62859;53.906;27.430;2023-02-25T17:31:25;5.8;4.5;3.5
74426;PMS7003;62859;53.906;27.430;2023-02-25T17:37:02;6.3;4;3.7
74426;PMS7003;62859;53.906;27.430;2023-02-25T17:41:39;7.7;4.7;3.3
74426;PMS7003;62859;53.906;27.430;2023-02-25T17:46:28;6.7;5.7;3.7
74426;PMS7003;62859;53.906;27.430;2023-02-25T17:51:45;6;5.3;4
74426;PMS7003;62859;53.906;27.430;2023-02-25T17:56:14;9.7;8.3;6.3
74426;PMS7003;62859;53.906;27.430;2023-02-25T18:02:25;5.7;5.7;4.3
74426;PMS7003;62859;53.906;27.430;2023-02-25T18:06:44;5;4.3;3.3
74426;PMS7003;62859;53.906;27.430;2023-02-25T18:11:20;8;6.5;5
74426;PMS7003;62859;53.906;27.430;2023-02-25T18:16:47;7.7;6.3;5.3
74426;PMS7003;62859;53.906;27.430;2023-02-25T18:21:27;6.7;6.3;5.3
74426;PMS7003;62859;53.906;27.430;2023-02-25T18:27:06;7.3;6.7;5
74426;PMS7003;62859;53.906;27.430;2023-02-25T18:31:39;6.3;5.8;4
74426;PMS7003;62859;53.906;27.430;2023-02-25T18:36:39;11;9.3;6
74426;PMS7003;62859;53.906;27.430;2023-02-25T18:41:13;6;5.7;4.3
74426;PMS7003;62859;53.906;27.430;2023-02-25T18:46:27;5.3;4.7;2.7
74426;PMS7003;62859;53.906;27.430;2023-02-25T18:52:03;6.8;5.8;4
74426;PMS7003;62859;53.906;27.430;2023-02-25T18:56:39;6;5;3
74426;PMS7003;62859;53.906;27.430;2023-02-25T19:01:26;7;5.3;3.7
74426;PMS7003;62859;53.906;27.430;2023-02-25T19:06:13;6.3;4.5;3.3
74426;PMS7003;62859;53.906;27.430;2023-02-25T19:11:14;7.7;5.7;3.7
74426;PMS7003;62859;53.906;27.430;2023-02-25T19:16:49;6.3;6;4.3
74426;PMS7003;62859;53.906;27.430;2023-02-25T19:21:14;5.7;5.3;3.3
74426;PMS7003;62859;53.906;27.430;2023-02-25T19:26:13;5.3;4.5;3.5
74426;PMS7003;62859;53.906;27.430;2023-02-25T19:31:45;6;5;2.7
74426;PMS7003;62859;53.906;27.430;2023-02-25T19:36:13;5.3;5.3;3.3
74426;PMS7003;62859;53.906;27.430;2023-02-25T19:41:51;6;5;3.3
74426;PMS7003;62859;53.906;27.430;2023-02-25T19:46:39;7;6.3;4.3
74426;PMS7003;62859;53.906;27.430;2023-02-25T19:51:27;7.7;5.7;3
74426;PMS7003;62859;53.906;27.430;2023-02-25T19:56:45;7;5;4.3
74426;PMS7003;62859;53.906;27.430;2023-02-25T20:01:13;5;5;3.7
74426;PMS7003;62859;53.906;27.430;2023-02-25T20:07:03;5.5;4.5;3.3
74426;PMS7003;62859;53.906;27.430;2023-02-25T20:11:39;5.7;4;2.3
74426;PMS7003;62859;53.906;27.430;2023-02-25T20:16:13;5.7;3;2
74426;PMS7003;62859;53.906;27.430;2023-02-25T20:21:47;4.7;3.7;2.3
74426;PMS7003;62859;53.906;27.430;2023-02-25T20:26:27;3.8;3;1.8
74426;PMS7003;62859;53.906;27.430;2023-02-25T20:31:59;2.3;2.3;2
74426;PMS7003;62859;53.906;27.430;2023-02-25T20:36:40;2.3;2.3;1.3
74426;PMS7003;62859;53.906;27.430;2023-02-25T20:41:13;3.3;2;1.7
74426;PMS7003;62859;53.906;27.430;2023-02-25T20:46:45;3.5;2.8;1.8
74426;PMS7003;62859;53.906;27.430;2023-02-25T20:51:13;4;2.7;2
74426;PMS7003;62859;53.906;27.430;2023-02-25T20:57:03;2;2;1.7
74426;PMS7003;62859;53.906;27.430;2023-02-25T21:01:37;6;3.3;1.5
74426;PMS7003;62859;53.906;27.430;2023-02-25T21:06:13;4.3;4.3;2.7
74426;PMS7003;62859;53.906;27.430;2023-02-25T21:12:03;3;3;2.3
74426;PMS7003;62859;53.906;27.430;2023-02-25T21:16:13;3.7;3.3;2
74426;PMS7003;62859;53.906;27.430;2023-02-25T21:22:03;3.8;3.3;2.5
74426;PMS7003;62859;53.906;27.430;2023-02-25T21:26:39;4;3.7;2.3
74426;PMS7003;62859;53.906;27.430;2023-02-25T21:32:01;3.7;3.7;3
74426;PMS7003;62859;53.906;27.430;2023-02-25T21:36:43;5.3;4;3
74426;PMS7003;62859;53.906;27.430;2023-02-25T21:41:13;4.3;4.3;2.5
74426;PMS7003;62859;53.906;27.430;2023-02-25T21:47:01;7;5.7;3
74426;PMS7003;62859;53.906;27.430;2023-02-25T21:51:39;6.7;5;2.7
74426;PMS7003;62859;53.906;27.430;2023-02-25T21:57:01;5.3;5;2.7
74426;PMS7003;62859;53.906;27.430;2023-02-25T22:01:45;5.8;4.3;3.3
74426;PMS7003;62859;53.906;27.430;2023-02-25T22:06:13;5;5;3.3
74426;PMS7003;62859;53.906;27.430;2023-02-25T22:12:01;10;6;4.3
74426;PMS7003;62859;53.906;27.430;2023-02-25T22:16:51;5.7;5.3;4.3
74426;PMS7003;62859;53.906;27.430;2023-02-25T22:22:01;8.8;7.8;5.5
74426;PMS7003;62859;53.906;27.430;2023-02-25T22:26:45;6.7;6.3;4.3
74426;PMS7003;62859;53.906;27.430;2023-02-25T22:31:41;7.3;5;4
74426;PMS7003;62859;53.906;27.430;2023-02-25T22:37:05;11.7;10;5.3
74426;PMS7003;62859;53.906;27.430;2023-02-25T22:41:39;9;7.5;5.5
74426;PMS7003;62859;53.906;27.430;2023-02-25T22:46:51;7;6.7;5.3
74426;PMS7003;62859;53.906;27.430;2023-02-25T22:51:47;10;8;4.7
74426;PMS7003;62859;53.906;27.430;2023-02-25T22:56:27;10.3;9.3;5.8
74426;PMS7003;62859;53.906;27.430;2023-02-25T23:02:03;12;9.7;5.7
74426;PMS7003;62859;53.906;27.430;2023-02-25T23:06:13;9;8.3;5.3
74426;PMS7003;62859;53.906;27.430;2023-02-25T23:12:05;12;10.7;6
74426;PMS7003;62859;53.906;27.430;2023-02-25T23:16:49;11.3;9.3;6
74426;PMS7003;62859;53.906;27.430;2023-02-25T23:21:13;10.7;7.7;6
74426;PMS7003;62859;53.906;27.430;2023-02-25T23:27:03;9;8.7;6.3
74426;PMS7003;62859;53.906;27.430;2023-02-25T23:31:17;9.3;8.7;6
74426;PMS7003;62859;53.906;27.430;2023-02-25T23:37:05;10.8;8.5;5.8
74426;PMS7003;62859;53.906;27.430;2023-02-25T23:41:49;11;10.3;7
74426;PMS7003;62859;53.906;27.430;2023-02-25T23:46:13;10.3;9;6.7
74426;PMS7003;62859;53.906;27.430;2023-02-25T23:52:05;9;8.7;6
74426;PMS7003;62859;53.906;27.430;2023-02-25T23:56:25;12.5;9.5;5.8
